Time;durP1;ratioP1;P1;durP2;ratioP2;P2;SDS_P1;SDS_P2;PMS_P1;PMS_P2;Temp;Humidity;BMP_temperature;BMP_pressure;BME280_temperature;BME280_humidity;BME280_pressure;Samples;Min_cycle;Max_cycle;Signal;HPM_P1;HPM_P2
2021/12/17 00:10:40;;;;;;;10.20;6.47;;;;;;;5.69;67.01;101087.91;7633043;32;37863;-77
2021/12/17 00:14:58;;;;;;;12.07;7.35;;;;;;;5.62;67.70;101077.94;7633060;32;39960;-78
2021/12/17 00:19:24;;;;;;;9.90;6.15;;;;;;;5.77;67.22;101077.72;7632997;32;40527;-77
2021/12/17 00:55:51;;;;;;;8.23;4.93;;;;;;;4.94;64.79;101042.88;7632534;32;40110;-76
2021/12/17 01:00:17;;;;;;;8.95;5.07;;;;;;;4.94;65.00;101042.06;7632446;32;37863;-77
2021/12/17 01:04:35;;;;;;;9.23;5.40;;;;;;;4.86;65.94;101061.97;7632602;32;37111;-77
2021/12/17 01:08:51;;;;;;;10.48;5.30;;;;;;;5.17;64.76;101074.94;7632482;32;40850;-76
2021/12/17 01:13:10;;;;;;;7.93;4.70;;;;;;;5.10;65.15;101098.41;7632250;32;40905;-77
2021/12/17 01:17:31;;;;;;;8.57;5.35;;;;;;;5.36;63.83;101094.94;7632449;32;37713;-77
2021/12/17 01:35:48;;;;;;;6.85;4.62;;;;;;;5.72;60.79;101080.22;7632013;32;37581;-77
2021/12/17 01:44:42;;;;;;;10.65;5.22;;;;;;;5.91;60.00;101061.47;7632089;32;39311;-78
2021/12/17 02:02:44;;;;;;;10.23;5.30;;;;;;;5.31;61.28;101064.97;7631755;32;39517;-77
2021/12/17 02:07:02;;;;;;;12.77;5.10;;;;;;;5.64;60.03;101053.38;7630943;32;40884;-77
2021/12/17 02:34:37;;;;;;;8.13;4.30;;;;;;;5.60;59.50;101077.28;7631076;32;37940;-76
2021/12/17 02:38:47;;;;;;;9.23;4.80;;;;;;;5.33;60.15;101075.59;7629547;32;39266;-77
2021/12/17 02:47:39;;;;;;;7.07;3.67;;;;;;;5.61;58.50;101065.44;7630840;32;37690;-77
2021/12/17 02:51:56;;;;;;;7.97;4.05;;;;;;;5.00;60.20;101049.31;7629519;32;37854;-77
2021/12/17 02:56:12;;;;;;;8.90;4.20;;;;;;;4.83;60.51;101065.06;7630755;32;40133;-77
2021/12/17 03:00:29;;;;;;;5.18;3.62;;;;;;;4.92;59.75;101050.34;7630450;32;40374;-78
2021/12/17 03:04:45;;;;;;;5.47;3.47;;;;;;;4.94;59.53;101052.84;7630138;32;37943;-77
2021/12/17 03:09:04;;;;;;;8.35;4.00;;;;;;;4.89;59.51;101039.94;7623255;32;223286;-77
2021/12/17 03:13:22;;;;;;;5.07;3.40;;;;;;;4.40;60.97;101058.06;7629797;32;39124;-76
2021/12/17 03:26:33;;;;;;;5.87;4.00;;;;;;;5.20;58.34;101065.59;7633737;32;37114;-77
2021/12/17 03:30:49;;;;;;;6.10;4.00;;;;;;;5.21;57.66;101060.00;7633686;32;39344;-78
2021/12/17 03:35:06;;;;;;;7.47;4.03;;;;;;;5.26;57.93;101062.91;7633403;32;40833;-77
2021/12/17 03:39:24;;;;;;;7.18;3.67;;;;;;;5.39;57.44;101045.03;7633448;32;37915;-77
2021/12/17 03:43:40;;;;;;;6.32;3.50;;;;;;;5.79;56.47;101036.91;7633454;32;38618;-77
2021/12/17 03:47:56;;;;;;;8.52;4.03;;;;;;;5.75;56.21;101038.38;7633345;32;39421;-77
2021/12/17 03:52:16;;;;;;;7.45;4.05;;;;;;;5.57;56.58;101047.97;7632071;32;40853;-78
2021/12/17 03:56:32;;;;;;;7.53;4.05;;;;;;;5.39;57.08;101045.03;7633315;32;38643;-77
2021/12/17 04:00:48;;;;;;;6.68;4.20;;;;;;;5.88;56.14;101054.63;7633280;32;37149;-77
2021/12/17 04:05:05;;;;;;;6.30;4.12;;;;;;;5.39;57.08;101055.84;7632112;32;39447;-77
2021/12/17 04:09:23;;;;;;;6.93;4.20;;;;;;;5.67;56.81;101060.22;7631799;32;39887;-78
2021/12/17 04:13:39;;;;;;;8.82;4.75;;;;;;;4.91;59.15;101070.31;7632942;32;37904;-77
2021/12/17 04:17:57;;;;;;;8.73;4.53;;;;;;;5.02;58.95;101066.19;7633030;32;37078;-77
2021/12/17 04:22:12;;;;;;;5.87;4.10;;;;;;;5.24;58.54;101073.09;7633226;32;39554;-77
2021/12/17 04:26:28;;;;;;;6.78;4.32;;;;;;;4.64;60.68;101081.03;7632922;32;40920;-77
2021/12/17 04:30:45;;;;;;;7.12;4.22;;;;;;;5.17;59.09;101072.22;7632312;32;37903;-77
2021/12/17 04:35:03;;;;;;;10.10;4.70;;;;;;;5.16;59.63;101067.87;7633006;32;37396;-77
2021/12/17 04:39:21;;;;;;;8.68;4.57;;;;;;;5.01;60.02;101073.44;7632803;32;39282;-78
2021/12/17 04:43:48;;;;;;;7.35;4.65;;;;;;;5.40;59.02;101076.47;7632719;32;39924;-77
2021/12/17 05:01:51;;;;;;;9.50;4.97;;;;;;;5.84;57.58;101056.06;7615038;32;40649;-77
2021/12/17 05:06:07;;;;;;;10.07;4.87;;;;;;;5.57;58.18;101058.78;7632448;32;38550;-77
2021/12/17 05:23:54;;;;;;;11.63;5.32;;;;;;;5.37;58.51;101068.75;7632289;32;38510;-76
2021/12/17 05:28:10;;;;;;;11.00;5.32;;;;;;;5.65;57.81;101072.09;7632250;32;37866;-76
2021/12/17 05:32:26;;;;;;;10.18;5.30;;;;;;;5.97;56.63;101057.97;7632236;32;39597;-77
2021/12/17 05:36:42;;;;;;;9.88;4.97;;;;;;;5.74;57.27;101063.75;7632005;32;39976;-77
2021/12/17 05:40:59;;;;;;;10.50;5.62;;;;;;;5.82;57.02;101072.50;7631134;32;38530;-77
2021/12/17 05:45:31;;;;;;;11.55;4.93;;;;;;;5.92;56.61;101069.38;7632043;32;37897;-77
2021/12/17 05:49:47;;;;;;;10.88;5.82;;;;;;;5.94;56.59;101080.81;7632005;32;39422;-77
2021/12/17 05:54:03;;;;;;;12.98;6.43;;;;;;;5.83;57.34;101067.94;7631787;32;40027;-77
2021/12/17 05:58:20;;;;;;;11.70;5.82;;;;;;;5.91;57.03;101072.31;7631697;32;39132;-76
2021/12/17 06:02:36;;;;;;;13.55;5.57;;;;;;;5.92;56.68;101065.84;7631834;32;37042;-76
2021/12/17 06:06:52;;;;;;;11.80;5.95;;;;;;;5.87;56.50;101080.00;7631745;32;39125;-74
2021/12/17 06:11:08;;;;;;;11.48;6.60;;;;;;;5.91;56.33;101083.12;7631574;32;40052;-77
2021/12/17 06:15:25;;;;;;;10.98;5.97;;;;;;;5.59;57.91;101083.75;7631414;32;38027;-76
2021/12/17 06:19:41;;;;;;;12.55;6.47;;;;;;;5.61;58.54;101078.97;7631517;32;37824;-77
2021/12/17 06:23:57;;;;;;;14.05;6.55;;;;;;;5.23;60.42;101071.44;7631381;32;40287;-77
2021/12/17 06:28:14;;;;;;;13.70;7.03;;;;;;;5.51;58.70;101064.19;7631379;32;40049;-76
2021/12/17 06:32:31;;;;;;;11.68;5.80;;;;;;;5.29;58.99;101077.06;7629962;32;38811;-76
2021/12/17 06:36:47;;;;;;;11.82;6.30;;;;;;;5.34;59.35;101079.97;7631087;32;37972;-76
2021/12/17 06:41:03;;;;;;;13.88;6.45;;;;;;;5.66;57.95;101094.59;7630906;32;39564;-75
2021/12/17 06:45:35;;;;;;;11.50;6.60;;;;;;;5.87;62.28;101098.13;7630827;32;40797;-76
2021/12/17 06:50:00;;;;;;;11.02;6.25;;;;;;;6.20;62.43;101111.66;7630759;32;38023;-76
2021/12/17 06:59:08;;;;;;;12.30;5.53;;;;;;;5.65;58.32;101112.66;7634081;32;39495;-77
2021/12/17 07:17:28;;;;;;;12.05;7.12;;;;;;;5.60;58.35;101096.22;7633727;32;39572;-76
2021/12/17 07:39:36;;;;;;;17.02;9.38;;;;;;;5.93;57.85;101122.50;7607059;32;40595;-76
2021/12/17 07:43:55;;;;;;;13.48;7.57;;;;;;;6.05;57.82;101120.00;7607267;32;38707;-77
2021/12/17 07:48:13;;;;;;;15.85;8.57;;;;;;;6.31;57.27;101137.25;7607396;32;36297;-77
2021/12/17 07:52:29;;;;;;;16.45;9.02;;;;;;;6.42;56.92;101133.09;7607569;32;38452;-76
2021/12/17 07:56:46;;;;;;;15.88;9.23;;;;;;;6.54;56.44;101117.84;7607197;32;40458;-76
2021/12/17 08:01:02;;;;;;;17.17;8.77;;;;;;;6.64;55.88;101123.66;7607113;32;38364;-76
2021/12/17 08:05:19;;;;;;;17.85;8.82;;;;;;;6.95;55.24;101136.47;7606477;32;37078;-76
2021/12/17 08:09:35;;;;;;;17.95;8.73;;;;;;;7.00;54.94;101133.09;7606787;32;39394;-76
2021/12/17 08:13:54;;;;;;;17.52;8.43;;;;;;;7.30;54.14;101116.28;7606870;32;40826;-76
2021/12/17 08:27:29;;;;;;;13.90;6.82;;;;;;;7.88;53.62;101107.09;7606811;32;39287;-76
2021/12/17 08:31:45;;;;;;;11.98;5.82;;;;;;;8.11;52.62;101106.47;7605618;32;40846;-76
2021/12/17 08:36:01;;;;;;;12.30;6.03;;;;;;;8.14;52.83;101106.03;7606600;32;38656;-77
2021/12/17 08:40:17;;;;;;;8.85;5.05;;;;;;;8.12;52.12;101096.44;7606796;32;37086;-77
2021/12/17 08:44:34;;;;;;;11.75;4.82;;;;;;;8.47;52.00;101104.91;7612104;32;39027;-77
2021/12/17 08:48:50;;;;;;;8.90;4.75;;;;;;;8.57;51.14;101096.22;7635279;32;39757;-77
2021/12/17 08:53:07;;;;;;;10.05;4.35;;;;;;;8.74;51.36;101099.97;7658100;32;38671;-78
2021/12/17 08:57:23;;;;;;;9.07;3.78;;;;;;;8.76;50.87;101097.03;7658085;32;38068;-78
2021/12/17 09:01:39;;;;;;;10.05;5.22;;;;;;;8.60;51.10;101099.28;7658137;32;39309;-78
2021/12/17 09:05:55;;;;;;;10.40;4.72;;;;;;;8.61;50.74;101098.25;7657456;32;40931;-78
2021/12/17 09:10:12;;;;;;;11.23;5.40;;;;;;;8.81;50.65;101099.91;7658059;32;37930;-78
2021/12/17 09:14:29;;;;;;;9.73;4.57;;;;;;;8.84;50.81;101096.72;7648826;32;37843;-77
2021/12/17 09:18:46;;;;;;;8.88;4.90;;;;;;;8.80;50.12;101104.50;7657862;32;39091;-78
2021/12/17 09:23:02;;;;;;;7.80;4.60;;;;;;;9.14;49.93;101104.06;7657955;32;40538;-78
2021/12/17 09:27:19;;;;;;;10.45;4.53;;;;;;;9.27;48.71;101108.53;7631556;32;37678;-78
2021/12/17 09:31:36;;;;;;;12.13;4.22;;;;;;;9.71;47.82;101109.09;7631778;32;37217;-80
2021/12/17 09:35:52;;;;;;;7.45;3.53;;;;;;;8.96;49.33;101103.06;7632023;32;39435;-79
2021/12/17 09:40:11;;;;;;;8.15;3.80;;;;;;;9.55;48.18;101086.09;7632188;32;39821;-79
2021/12/17 09:44:27;;;;;;;9.88;4.12;;;;;;;9.89;47.73;101084.50;7632077;32;37833;-78
2021/12/17 09:48:47;;;;;;;7.78;4.05;;;;;;;9.73;48.07;101077.87;7632051;32;37120;-79
2021/12/17 09:53:03;;;;;;;5.28;3.45;;;;;;;9.63;48.73;101072.16;7631997;32;39324;-79
2021/12/17 09:57:20;;;;;;;10.27;3.40;;;;;;;10.11;46.88;101086.66;7631830;32;39996;-80
2021/12/17 10:01:42;;;;;;;7.45;4.00;;;;;;;9.85;48.46;101082.47;7631671;32;38618;-78
2021/12/17 10:05:58;;;;;;;7.85;3.60;;;;;;;10.20;46.65;101076.22;7631844;32;37076;-77
2021/12/17 10:10:16;;;;;;;5.32;3.33;;;;;;;10.44;47.58;101077.87;7631464;32;39449;-77
2021/12/17 10:14:32;;;;;;;6.05;3.08;;;;;;;10.89;46.77;101077.19;7631423;32;39663;-78
2021/12/17 10:18:50;;;;;;;5.57;3.75;;;;;;;11.16;45.07;101081.22;7631363;32;38399;-78
2021/12/17 10:23:09;;;;;;;5.45;3.30;;;;;;;11.36;45.18;101064.41;7631486;32;36315;-79
2021/12/17 10:27:29;;;;;;;8.52;3.47;;;;;;;11.88;44.23;101061.44;7629634;32;39271;-79
2021/12/17 10:31:54;;;;;;;9.25;3.65;;;;;;;11.39;44.16;101067.47;7631219;32;40554;-79
2021/12/17 10:36:10;;;;;;;10.15;3.60;;;;;;;11.04;44.11;101068.47;7629969;32;37844;-78
2021/12/17 10:40:38;;;;;;;10.00;3.72;;;;;;;11.54;44.47;101056.00;7631060;32;37123;-78
2021/12/17 10:45:05;;;;;;;9.48;4.07;;;;;;;11.47;43.71;101066.25;7631043;32;39649;-79
2021/12/17 10:49:25;;;;;;;7.82;4.03;;;;;;;10.92;44.93;101069.56;7630820;32;39983;-78
2021/12/17 10:53:46;;;;;;;10.88;3.80;;;;;;;11.31;44.64;101059.66;7629589;32;38077;-78
2021/12/17 10:58:03;;;;;;;10.90;3.95;;;;;;;11.55;43.78;101051.34;7630473;32;37748;-78
2021/12/17 11:02:19;;;;;;;14.60;4.22;;;;;;;11.63;44.07;101046.31;7630415;32;39661;-78
2021/12/17 11:06:41;;;;;;;8.30;3.85;;;;;;;10.76;44.62;101050.19;7630394;32;40869;-78
2021/12/17 11:11:08;;;;;;;11.40;4.17;;;;;;;10.86;44.44;101060.47;7630030;32;38741;-78
2021/12/17 11:15:30;;;;;;;9.98;4.57;;;;;;;11.05;45.18;101033.81;7629176;32;36748;-78
2021/12/17 11:19:48;;;;;;;10.73;4.35;;;;;;;10.30;46.60;101043.75;7630170;32;39492;-79
2021/12/17 11:24:05;;;;;;;9.98;3.83;;;;;;;10.25;47.27;101032.75;7629912;32;40304;-77
2021/12/17 11:28:22;;;;;;;8.23;3.50;;;;;;;11.07;44.45;101024.34;7629643;32;38044;-78
2021/12/17 11:32:41;;;;;;;9.15;3.50;;;;;;;10.65;45.30;101037.41;7629817;32;37261;-79
2021/12/17 11:37:00;;;;;;;7.45;3.75;;;;;;;10.32;46.10;101028.00;7629686;32;40119;-77
2021/12/17 11:41:53;;;;;;;6.97;3.45;;;;;;;10.58;46.06;101023.09;7631899;32;38975;-79
2021/12/17 11:46:13;;;;;;;8.85;4.12;;;;;;;10.88;45.53;101014.66;7633328;32;37951;-80
2021/12/17 11:50:32;;;;;;;8.15;3.40;;;;;;;10.90;44.31;101031.66;7633482;32;37413;-80
2021/12/17 11:54:48;;;;;;;8.73;3.53;;;;;;;11.26;43.13;101022.22;7633348;32;40146;-78
2021/12/17 11:59:05;;;;;;;6.53;3.12;;;;;;;10.60;46.04;101018.22;7633133;32;39999;-81
2021/12/17 12:03:25;;;;;;;9.23;3.80;;;;;;;11.94;42.50;101010.47;7621608;32;38170;-79
2021/12/17 12:07:41;;;;;;;7.50;3.00;;;;;;;12.82;40.16;101005.03;7620198;32;37024;-78
2021/12/17 12:12:11;;;;;;;8.20;3.17;;;;;;;12.61;39.42;100998.50;7606617;32;40172;-79
2021/12/17 12:16:30;;;;;;;8.65;3.03;;;;;;;13.40;39.10;100999.87;7606573;32;39937;-80
2021/12/17 12:20:52;;;;;;;8.65;3.67;;;;;;;13.80;36.84;101004.00;7606654;32;38630;-79
2021/12/17 12:25:28;;;;;;;9.27;3.20;;;;;;;13.64;37.77;100994.00;7606661;32;36818;-78
2021/12/17 12:29:44;;;;;;;9.50;3.37;;;;;;;13.12;38.12;100993.56;7606437;32;39200;-78
2021/12/17 12:34:07;;;;;;;10.43;2.90;;;;;;;12.87;38.71;100979.63;7605479;32;39900;-80
2021/12/17 12:38:42;;;;;;;9.23;3.12;;;;;;;12.89;38.19;100986.47;7606625;32;37859;-78
2021/12/17 12:42:58;;;;;;;9.95;3.12;;;;;;;12.00;40.13;100996.63;7605508;32;37591;-78
2021/12/17 12:47:20;;;;;;;8.00;2.85;;;;;;;13.17;38.39;100994.69;7606681;32;39114;-79
2021/12/17 12:51:36;;;;;;;6.97;2.55;;;;;;;12.16;39.50;100985.91;7616647;32;40093;-78
2021/12/17 12:55:53;;;;;;;7.30;2.65;;;;;;;11.37;41.18;100989.63;7630260;32;36700;-79
2021/12/17 13:00:22;;;;;;;7.15;2.67;;;;;;;12.52;38.56;100989.06;7630898;32;37707;-78
2021/12/17 13:04:38;;;;;;;6.45;2.58;;;;;;;12.90;37.60;100979.09;7632634;32;39157;-78
2021/12/17 13:08:56;;;;;;;2.97;2.33;;;;;;;12.10;38.86;100975.97;7631098;32;40040;-78
2021/12/17 13:13:28;;;;;;;7.53;2.65;;;;;;;12.09;39.17;100977.03;7632291;32;38947;-76
2021/12/17 13:22:59;;;;;;;4.32;2.40;;;;;;;12.29;38.59;100974.56;7622870;32;39334;-76
2021/12/17 13:27:16;;;;;;;8.48;3.08;;;;;;;12.72;37.47;100972.87;7632359;32;39974;-77
2021/12/17 13:31:41;;;;;;;9.13;3.10;;;;;;;14.32;34.25;100960.41;7632209;32;38512;-78
2021/12/17 13:35:57;;;;;;;5.90;2.50;;;;;;;15.85;31.79;100947.91;7632095;32;37125;-75
2021/12/17 13:40:13;;;;;;;5.80;2.83;;;;;;;17.32;28.59;100960.38;7632129;32;40157;-75
2021/12/17 13:44:35;;;;;;;6.22;2.53;;;;;;;16.97;28.56;100974.16;7632062;32;40876;-72
2021/12/17 13:48:52;;;;;;;10.15;3.33;;;;;;;17.67;28.02;100972.19;7631950;32;38508;-72
2021/12/17 13:53:16;;;;;;;5.50;2.35;;;;;;;17.21;27.87;100982.50;7630775;32;36785;-73
2021/12/17 13:57:54;;;;;;;6.72;2.53;;;;;;;17.24;28.16;100975.59;7631544;32;39718;-72
2021/12/17 14:02:22;;;;;;;6.62;2.40;;;;;;;17.00;29.43;100979.06;7630890;32;40688;-73
2021/12/17 14:06:51;;;;;;;5.05;2.15;;;;;;;17.29;27.37;100967.28;7631734;32;38080;-71
2021/12/17 14:11:19;;;;;;;4.32;2.10;;;;;;;16.83;27.77;100962.06;7631585;32;37030;-72
2021/12/17 14:15:57;;;;;;;8.85;2.92;;;;;;;16.26;29.19;100969.78;7631075;32;40689;-72
2021/12/17 14:20:50;;;;;;;6.60;2.80;;;;;;;14.75;32.18;100981.16;7631578;32;40193;-71
2021/12/17 14:25:27;;;;;;;6.53;2.55;;;;;;;16.34;29.39;100960.97;7621850;32;38546;-70
2021/12/17 14:29:43;;;;;;;6.62;3.47;;;;;;;15.67;30.25;100958.38;7631341;32;37731;-71
2021/12/17 14:34:00;;;;;;;5.62;2.70;;;;;;;16.02;29.81;100961.34;7630965;32;39299;-70
2021/12/17 14:38:19;;;;;;;5.65;2.50;;;;;;;13.95;33.54;100975.03;7630974;32;40300;-71
2021/12/17 14:42:38;;;;;;;7.18;3.10;;;;;;;12.71;36.14;100984.94;7630921;32;37989;-71
2021/12/17 14:47:02;;;;;;;8.02;3.30;;;;;;;10.47;40.69;100998.34;7625800;32;37232;-70
2021/12/17 15:00:56;;;;;;;5.93;3.53;;;;;;;9.42;44.06;100999.19;7629884;32;37771;-71
2021/12/17 15:05:14;;;;;;;8.70;3.33;;;;;;;8.58;46.71;101000.84;7630438;32;37109;-72
2021/12/17 15:09:35;;;;;;;9.68;4.00;;;;;;;8.55;46.42;100998.56;7629262;32;39998;-71
2021/12/17 15:13:54;;;;;;;11.10;4.65;;;;;;;8.27;47.67;101008.09;7629693;32;40018;-71
2021/12/17 15:18:16;;;;;;;11.20;4.45;;;;;;;7.75;48.99;100999.44;7631527;32;38570;-71
2021/12/17 15:22:33;;;;;;;11.70;5.25;;;;;;;7.66;49.63;101008.94;7633358;32;37842;-71
2021/12/17 15:26:49;;;;;;;14.90;5.20;;;;;;;8.02;48.91;101010.03;7633415;32;39365;-72
2021/12/17 15:31:06;;;;;;;8.20;4.50;;;;;;;7.73;49.18;101015.12;7632782;32;40961;-70
2021/12/17 15:35:24;;;;;;;8.65;4.57;;;;;;;8.02;48.61;101020.91;7633439;32;38647;-73
2021/12/17 15:39:40;;;;;;;12.65;3.95;;;;;;;8.23;48.35;101025.91;7632487;32;37859;-71
2021/12/17 15:43:56;;;;;;;8.68;4.32;;;;;;;8.48;47.82;101025.00;7633456;32;40218;-72
2021/12/17 15:48:20;;;;;;;7.28;3.58;;;;;;;8.10;48.67;101034.19;7631363;32;40047;-71
2021/12/17 15:52:49;;;;;;;8.73;3.85;;;;;;;7.99;48.73;101027.63;7632943;32;38619;-72
2021/12/17 15:57:06;;;;;;;9.45;3.58;;;;;;;8.09;48.31;101032.53;7633073;32;37835;-72
2021/12/17 16:01:22;;;;;;;8.30;4.28;;;;;;;7.92;49.03;101021.44;7632561;32;40119;-73
2021/12/17 16:05:38;;;;;;;8.10;4.20;;;;;;;7.99;48.39;101026.78;7632965;32;40795;-72
2021/12/17 16:10:33;;;;;;;10.85;4.40;;;;;;;8.12;47.88;101028.53;7631106;32;37835;-72
2021/12/17 16:23:46;;;;;;;9.52;4.75;;;;;;;7.95;48.56;101025.56;7632366;32;41279;-72
2021/12/17 16:28:03;;;;;;;11.23;3.97;;;;;;;8.02;48.08;101027.19;7632154;32;38679;-71
2021/12/17 16:32:19;;;;;;;9.95;4.10;;;;;;;7.76;48.03;101017.41;7632127;32;37989;-72
2021/12/17 16:36:38;;;;;;;12.65;4.20;;;;;;;7.85;47.97;101015.25;7631499;32;39251;-71
2021/12/17 16:40:54;;;;;;;8.45;4.10;;;;;;;7.63;48.59;101028.38;7631626;32;39851;-71
2021/12/17 16:45:22;;;;;;;10.60;3.97;;;;;;;7.67;48.40;101026.87;7631531;32;37836;-70
2021/12/17 16:49:40;;;;;;;9.30;4.00;;;;;;;7.42;48.09;101041.28;7631781;32;36959;-72
2021/12/17 16:53:57;;;;;;;13.25;5.03;;;;;;;7.45;48.49;101031.84;7625434;32;39424;-71
2021/12/17 16:58:13;;;;;;;10.77;4.75;;;;;;;7.04;49.46;101033.19;7631848;32;40854;-71
2021/12/17 17:02:29;;;;;;;12.80;7.28;;;;;;;7.23;49.57;101055.81;7631256;32;38770;-71
2021/12/17 17:06:46;;;;;;;11.12;4.47;;;;;;;7.29;48.84;101054.91;7632045;32;37211;-70
2021/12/17 17:11:04;;;;;;;8.18;4.22;;;;;;;7.11;49.77;101048.38;7630729;32;39154;-71
2021/12/17 17:15:21;;;;;;;9.88;4.20;;;;;;;6.95;50.01;101048.84;7631944;32;40722;-71
2021/12/17 17:19:37;;;;;;;9.23;4.40;;;;;;;6.64;50.17;101050.50;7631519;32;37921;-70
2021/12/17 17:23:53;;;;;;;10.18;4.00;;;;;;;7.03;49.20;101039.66;7631591;32;37109;-71
2021/12/17 17:28:12;;;;;;;12.13;4.87;;;;;;;6.99;49.81;101043.87;7631774;32;39339;-69
2021/12/17 17:32:28;;;;;;;7.60;3.95;;;;;;;6.36;50.80;101040.81;7631726;32;40049;-71
2021/12/17 17:36:45;;;;;;;10.93;4.40;;;;;;;6.73;49.77;101054.63;7630048;32;36672;-70
2021/12/17 17:41:01;;;;;;;8.38;4.45;;;;;;;6.65;50.04;101044.00;7632092;32;37372;-71
2021/12/17 17:45:18;;;;;;;8.95;4.82;;;;;;;6.73;49.72;101035.62;7631468;32;40204;-70
2021/12/17 17:49:35;;;;;;;12.35;4.65;;;;;;;6.27;50.36;101050.19;7631665;32;40932;-70
2021/12/17 17:53:51;;;;;;;10.07;4.78;;;;;;;6.15;51.64;101039.16;7631078;32;38660;-70
2021/12/17 17:58:08;;;;;;;11.88;5.45;;;;;;;6.02;52.20;101036.50;7631256;32;37169;-71
2021/12/17 18:02:26;;;;;;;9.63;4.95;;;;;;;6.54;50.66;101039.28;7630166;32;39817;-70
2021/12/17 18:06:43;;;;;;;10.55;4.80;;;;;;;5.91;52.46;101027.09;7630911;32;39161;-71
2021/12/17 18:10:59;;;;;;;9.85;4.53;;;;;;;6.29;50.90;101018.28;7631069;32;38688;-70
2021/12/17 18:15:16;;;;;;;9.13;4.43;;;;;;;6.27;50.62;101017.69;7630497;32;37087;-71
2021/12/17 18:19:37;;;;;;;8.13;4.72;;;;;;;6.28;50.69;101019.38;7630932;32;39264;-69
2021/12/17 18:23:53;;;;;;;10.90;4.93;;;;;;;6.16;51.19;101019.19;7630591;32;39864;-69
2021/12/17 18:28:10;;;;;;;7.22;4.20;;;;;;;6.27;50.73;101016.87;7630658;32;38656;-71
2021/12/17 18:32:26;;;;;;;8.02;4.07;;;;;;;6.22;50.75;101028.31;7631251;32;36937;-71
2021/12/17 18:36:42;;;;;;;10.82;4.65;;;;;;;6.03;51.25;101027.34;7630172;32;40140;-72
2021/12/17 18:41:06;;;;;;;8.30;4.87;;;;;;;5.89;51.77;101028.38;7630878;32;39828;-71
2021/12/17 18:45:22;;;;;;;;;;;;;;;5.84;51.63;101031.69;7630448;32;38381;-70
2021/12/17 18:49:38;;;;;;;16.20;5.15;;;;;;;5.92;51.45;101045.03;7631824;32;37876;-71
2021/12/17 18:53:54;;;;;;;11.80;5.03;;;;;;;5.97;51.35;101049.84;7633581;32;39811;-72
2021/12/17 18:58:11;;;;;;;10.50;5.28;;;;;;;6.23;50.53;101042.69;7633598;32;38453;-71
2021/12/17 19:02:27;;;;;;;13.05;5.10;;;;;;;6.08;51.13;101048.38;7633666;32;37873;-71
2021/12/17 19:06:56;;;;;;;10.38;5.00;;;;;;;6.15;50.78;101058.13;7632942;32;36992;-70
2021/12/17 19:11:12;;;;;;;12.07;5.53;;;;;;;5.90;51.79;101063.34;7639755;32;39862;-71
2021/12/17 19:15:28;;;;;;;14.00;6.10;;;;;;;5.93;52.02;101057.53;7659064;32;40019;-72
2021/12/17 19:20:00;;;;;;;11.95;6.72;;;;;;;5.82;52.48;101055.44;7659113;32;36717;-72
2021/12/17 19:24:18;;;;;;;14.77;7.25;;;;;;;5.85;52.21;101057.75;7659797;32;37894;-72
2021/12/17 19:28:34;;;;;;;12.45;6.68;;;;;;;5.74;52.86;101045.66;7658655;32;39273;-72
2021/12/17 19:32:50;;;;;;;11.68;5.85;;;;;;;5.82;52.18;101050.84;7659569;32;40754;-71
2021/12/17 19:37:07;;;;;;;12.23;5.37;;;;;;;5.55;52.97;101024.84;7658503;32;38707;-70
2021/12/17 19:41:23;;;;;;;9.80;5.35;;;;;;;5.75;52.40;101046.50;7659274;32;37121;-72
2021/12/17 19:45:40;;;;;;;11.90;5.28;;;;;;;5.61;52.71;101037.56;7659153;32;40476;-71
2021/12/17 19:49:56;;;;;;;10.02;5.28;;;;;;;5.58;52.50;101044.19;7659256;32;39971;-71
2021/12/17 19:54:12;;;;;;;7.95;4.53;;;;;;;5.58;52.72;101040.66;7659563;32;38330;-71
2021/12/17 19:58:28;;;;;;;8.65;5.03;;;;;;;4.96;54.48;101039.97;7658614;32;37588;-72
2021/12/17 20:02:53;;;;;;;9.23;5.15;;;;;;;5.20;53.74;101042.09;7657420;32;39340;-71
2021/12/17 20:07:11;;;;;;;10.00;5.40;;;;;;;4.56;55.73;101045.25;7644649;32;40870;-71
2021/12/17 20:11:27;;;;;;;10.73;5.25;;;;;;;4.68;55.91;101043.63;7657705;32;38761;-69
2021/12/17 20:15:43;;;;;;;10.73;5.40;;;;;;;4.89;56.02;101046.19;7639835;32;37894;-70
2021/12/17 20:19:59;;;;;;;12.48;6.25;;;;;;;4.85;56.02;101049.50;7628552;32;39830;-71
2021/12/17 20:24:16;;;;;;;13.20;6.32;;;;;;;4.54;56.55;101060.81;7628929;32;39713;-72
2021/12/17 20:28:38;;;;;;;11.30;6.00;;;;;;;4.59;56.37;101059.19;7627599;32;37718;-71
2021/12/17 20:32:54;;;;;;;11.45;6.65;;;;;;;4.77;56.02;101064.03;7630557;32;37130;-71
2021/12/17 20:37:11;;;;;;;17.92;6.00;;;;;;;4.20;57.52;101057.09;7629409;32;39354;-70
2021/12/17 20:41:37;;;;;;;11.57;6.12;;;;;;;4.61;56.79;101045.47;7629971;32;39813;-70
2021/12/17 20:45:53;;;;;;;12.48;5.75;;;;;;;4.29;58.66;101064.00;7630336;32;38611;-69
2021/12/17 20:50:10;;;;;;;11.10;5.80;;;;;;;4.31;57.84;101048.44;7629490;32;37173;-71
2021/12/17 20:54:26;;;;;;;12.55;5.43;;;;;;;4.05;58.51;101055.38;7629634;32;40002;-70
2021/12/17 20:58:42;;;;;;;9.60;4.75;;;;;;;4.12;57.79;101056.25;7628154;32;40858;-71
2021/12/17 21:03:00;;;;;;;10.48;5.18;;;;;;;4.32;56.85;101055.50;7628776;32;37396;-71
2021/12/17 21:07:17;;;;;;;9.38;4.95;;;;;;;3.99;58.28;101050.75;7628355;32;37922;-70
2021/12/17 21:11:42;;;;;;;13.50;5.40;;;;;;;3.80;58.26;101051.44;7629748;32;39291;-69
2021/12/17 21:15:59;;;;;;;9.27;5.30;;;;;;;3.91;58.61;101069.78;7627163;32;40391;-71
2021/12/17 21:20:19;;;;;;;7.75;4.72;;;;;;;4.26;57.51;101064.41;7630062;32;38653;-70
2021/12/17 21:24:35;;;;;;;9.48;4.87;;;;;;;4.21;57.59;101062.31;7630180;32;37857;-69
2021/12/17 21:28:51;;;;;;;11.27;4.87;;;;;;;4.43;56.94;101064.91;7630108;32;39410;-70
2021/12/17 21:33:07;;;;;;;8.93;5.00;;;;;;;4.12;57.71;101074.28;7629866;32;40147;-73
2021/12/17 21:37:24;;;;;;;12.35;5.43;;;;;;;3.50;59.91;101073.19;7629866;32;37802;-71
2021/12/17 21:41:40;;;;;;;8.82;4.95;;;;;;;3.57;59.95;101084.87;7629946;32;37226;-73
2021/12/17 21:45:56;;;;;;;8.60;5.07;;;;;;;3.55;59.47;101082.38;7629922;32;39090;-71
2021/12/17 21:50:15;;;;;;;10.93;5.50;;;;;;;3.83;58.96;101069.91;7629797;32;39675;-71
2021/12/17 21:54:31;;;;;;;11.82;6.05;;;;;;;3.85;58.63;101078.69;7628354;32;38590;-71
2021/12/17 21:58:48;;;;;;;13.50;5.68;;;;;;;4.04;58.07;101072.56;7629472;32;38054;-69
2021/12/17 22:03:04;;;;;;;10.02;5.80;;;;;;;3.23;60.92;101077.50;7629646;32;39988;-71
2021/12/17 22:07:21;;;;;;;9.93;5.60;;;;;;;3.10;61.52;101083.56;7629597;32;39587;-71
2021/12/17 22:11:37;;;;;;;9.77;5.62;;;;;;;3.80;58.98;101073.84;7629299;32;37859;-72
2021/12/17 22:15:55;;;;;;;12.75;5.70;;;;;;;3.79;58.88;101072.19;7629340;32;37165;-72
2021/12/17 22:20:32;;;;;;;9.57;5.07;;;;;;;3.86;58.78;101083.03;7629287;32;38982;-70
2021/12/17 22:24:48;;;;;;;8.80;5.15;;;;;;;4.02;58.18;101079.19;7627362;32;40710;-72
2021/12/17 22:29:05;;;;;;;9.73;5.37;;;;;;;3.91;58.10;101083.28;7631066;32;38628;-71
2021/12/17 22:33:21;;;;;;;10.32;5.12;;;;;;;4.07;57.65;101093.78;7631422;32;37746;-71
2021/12/17 22:37:37;;;;;;;10.00;5.47;;;;;;;4.11;57.58;101086.94;7631159;32;39325;-72
2021/12/17 22:41:54;;;;;;;10.35;5.05;;;;;;;3.95;58.27;101081.88;7631100;32;39939;-72
2021/12/17 22:46:10;;;;;;;8.15;4.55;;;;;;;3.88;58.31;101070.16;7631023;32;38624;-71
2021/12/17 22:50:26;;;;;;;7.68;4.97;;;;;;;4.25;57.03;101070.84;7631021;32;36859;-71
2021/12/17 22:54:42;;;;;;;10.23;5.10;;;;;;;4.11;57.50;101073.44;7630854;32;39159;-72
2021/12/17 22:58:58;;;;;;;6.28;4.35;;;;;;;4.14;57.41;101075.75;7630636;32;39727;-71
2021/12/17 23:03:27;;;;;;;11.95;5.18;;;;;;;4.00;58.56;101068.63;7630638;32;37854;-72
2021/12/17 23:07:57;;;;;;;9.10;5.35;;;;;;;3.71;58.58;101069.66;7630483;32;37914;-72
2021/12/17 23:12:18;;;;;;;8.57;4.85;;;;;;;3.79;58.22;101060.56;7630347;32;39984;-71
2021/12/17 23:16:35;;;;;;;8.30;4.82;;;;;;;3.98;58.02;101065.25;7630396;32;39956;-71
2021/12/17 23:20:51;;;;;;;10.73;4.60;;;;;;;3.98;58.17;101067.13;7629939;32;38658;-72
2021/12/17 23:25:08;;;;;;;9.02;4.78;;;;;;;4.00;57.66;101065.91;7630175;32;38226;-72
2021/12/17 23:29:25;;;;;;;7.78;4.93;;;;;;;3.74;58.75;101063.84;7630065;32;39153;-71
2021/12/17 23:33:48;;;;;;;8.05;4.87;;;;;;;4.18;57.31;101061.88;7629858;32;40048;-71
2021/12/17 23:38:04;;;;;;;9.18;4.60;;;;;;;4.15;57.17;101068.50;7633535;32;37617;-71